LELN Airport Information

Runway Information
Runway 05 Length 6890 ft width 148 ft
Elevation 2994 ft Threshold 0 ft Heading 45
Runway 23 Length 6890 ft Width 148 ft
Elevation 3001 ft Threshold 0 ft Heading 225
Runway 06 Length 3609 ft width 328 ft
Elevation 3034 ft Threshold 0 ft Heading 60
Runway 24 Length 3609 ft Width 328 ft
Elevation 3000 ft Threshold 0 ft Heading 240
Airport Frequencies
Type APP Name APP Frequency 122.1 MHZ
Type TWR Name TWR Frequency 122.1 MHZ
Airport Navaids
Type VOR-DME Name Leon Frequency 112000 KHZ
Type NDB Name Leon Frequency 330 KHZ
Airport Weather Information & NOTAM
ADDS - METARS form results

(0315 UTC 17 November 2018)
Data provider http://aviationweather.gov/metar/data/
 
METAR text: LELN 170300Z AUTO 06003KT 9000 NCD 08/08 Q1017
Conditions at: LELN (LEON/VIRGEN CAMI, ES) observed 0300 UTC 17 November 2018
Temperature: 8.0°C (46°F)
Dewpoint: 8.0°C (46°F) [RH = 100%]
Pressure (altimeter): 30.03 inches Hg (1017.0 mb)
Winds: from the ENE (60 degrees) at 3 MPH (3 knots; 1.5 m/s)
Visibility: 6 miles ( 9 km)
Ceiling: at least 12,000 feet AGL
Clouds: sky clear below 12,000 feet AGL
Weather: no significant weather observed at this time

METAR text: LELN 170230Z AUTO 07004KT 9999 NCD 08/08 Q1017
Conditions at: LELN (LEON/VIRGEN CAMI, ES) observed 0230 UTC 17 November 2018
Temperature: 8.0°C (46°F)
Dewpoint: 8.0°C (46°F) [RH = 100%]
Pressure (altimeter): 30.03 inches Hg (1017.0 mb)
Winds: from the ENE (70 degrees) at 5 MPH (4 knots; 2.1 m/s)
Visibility: 6 or more miles (10+ km)
Ceiling: at least 12,000 feet AGL
Clouds: sky clear below 12,000 feet AGL
Weather: no significant weather observed at this time

Forecast for: LELN (LEON/VIRGEN CAMI, ES)
Text: TAF LELN 170200Z 1703/1712 08005KT 9999 BKN022
Forecast period: 0300 to 1200 UTC 17 November 2018
Forecast type: FROM: standard forecast or significant change
Winds: from the E (80 degrees) at 6 MPH (5 knots; 2.6 m/s)
Visibility: 6 or more miles 10+ km)
Ceiling: 2200 feet AGL
Clouds: broken clouds at 2200 feet AGL
Weather: no significant weather forecast for this period
Text: PROB40
Forecast period: 0300 to 1200 UTC 17 November 2018
Forecast type: TEMPORARY: The following changes expected for less than half the time period
Visibility: 1.86 miles (2.99 km)
Ceiling: 1000 feet AGL
Clouds: broken clouds at 1000 feet AGL
Weather: BR  (mist)
Text: TEMPO 1703/1712 3000 BR BKN010
Forecast period: 0300 to 0800 UTC 17 November 2018
Forecast type: TEMPORARY: The following changes expected for less than half the time period
Visibility: 0.50 miles (0.80 km)
Ceiling: 400 feet AGL
Clouds: broken clouds at 400 feet AGL
Weather: BCFG  (patches of fog)